Gudrun Maersk — OYAU2 — position and weather

sailwx.info

Track history (hours):
 
Tides and Currents Weather Stations Pressure Air Temp Water Temp Dewpoint Dewpoint Depression Visibility Wind Speed Wind Dir Waves Ship Positions

Gudrun Maersk

Last reported at 2018-Jul-22 04:17 UTC. Time now 2018-Jul-23 11:32 UTC.
Position N 34°51' E 128°59'.

Length 368 m; draft 13.8 m.

Type: Ship (hazmat cat A). MMSI: 220379000.

Date/timePositionNaut miles runAvg speedWind from/ knotsBaromVisibWave heightAir tempDewpointWater temp
2018-Jul-22 04:17N 34°51' E 128°59'2 5.8
2018-Jul-22 04:00N 34°51' E 129°01'4 7.4
2018-Jul-22 03:29N 34°52' E 129°05'4 7.9
2018-Jul-22 03:00N 34°54' E 129°09'6 8.1
2018-Jul-22 02:18N 34°58' E 129°15'2 6.9
2018-Jul-22 01:59N 34°59' E 129°17'2 4.4
2018-Jul-22 01:29N 35°01' E 129°19'2 3.3
2018-Jul-22 01:01N 35°02' E 129°19'1 1.2
2018-Jul-22 00:31N 35°01' E 129°20'1 2.7
2018-Jul-22 00:00N 35°01' E 129°21'0 0.4
2018-Jul-21 23:25N 35°01' E 129°21'1 1.8
2018-Jul-21 23:00N 35°01' E 129°20'1 1.4
2018-Jul-21 22:31N 35°00' E 129°20'1 1.3
2018-Jul-21 21:59N 35°00' E 129°19'0 1.0
2018-Jul-21 21:30N 34°60' E 129°18'0 0.5
2018-Jul-21 21:00N 34°60' E 129°18'0 0.9
2018-Jul-21 20:31N 34°59' E 129°18'0 0.1
2018-Jul-21 19:19N 34°59' E 129°18'0 0.9
2018-Jul-21 18:50N 34°60' E 129°19'0 0.8
2018-Jul-21 18:31N 34°60' E 129°19'0 0.6
2018-Jul-21 18:00N 35°00' E 129°19'0 0.3
2018-Jul-21 17:30N 35°00' E 129°19'1 1.2
2018-Jul-21 17:01N 35°01' E 129°19'0 0.6
2018-Jul-21 16:30N 35°01' E 129°19'0 0.5
2018-Jul-21 16:00N 35°01' E 129°20'0 0.7
2018-Jul-21 15:18N 35°02' E 129°20'0 0.4
2018-Jul-21 15:00N 35°02' E 129°20'1 0.9
2018-Jul-21 14:28N 35°01' E 129°19'2 2.0
2018-Jul-21 13:31N 34°60' E 129°18'1 2.1
2018-Jul-21 12:48N 34°59' E 129°17'1 2.6
2018-Jul-21 12:29N 34°58' E 129°16'1 2.3
2018-Jul-21 11:59N 34°57' E 129°16'1 2.4
2018-Jul-21 11:30N 34°56' E 129°15'5 1.5
2018-Jul-21 08:28N 34°52' E 129°14'0 1.0
2018-Jul-21 08:00N 34°51' E 129°14'  
2018-Jul-18 06:22N 36°00' E 120°12'153 5.9
2018-Jul-17 04:21N 37°17' E 122°57'51 7.9
2018-Jul-16 21:53N 37°55' E 122°14'1414.5
2018-Jul-16 20:54N 38°01' E 121°58'3214.1
2018-Jul-16 18:39N 38°18' E 121°24'214.1
2018-Jul-16 18:30N 38°20' E 121°21'713.9
2018-Jul-16 18:00N 38°23' E 121°14'4513.4
2018-Jul-16 14:37N 38°36' E 120°18'213.9
2018-Jul-16 14:30N 38°36' E 120°16'62 1.3
2018-Jul-14 15:16N 38°21' E 121°33'516.8
2018-Jul-14 15:00N 38°19' E 121°38'41714.3
2018-Jul-13 09:47N 34°52' E 129°09'720.2
2018-Jul-13 09:26N 34°57' E 129°16'920.2
2018-Jul-13 09:00N 35°01' E 129°25'  
Track history (hours):
 
Tides and Currents Weather Stations Pressure Air Temp Water Temp Dewpoint Dewpoint Depression Visibility Wind Speed Wind Dir Waves Ship Positions

Gudrun Maersk

Last reported at 2018-Jul-22 04:17 UTC. Time now 2018-Jul-23 11:32 UTC.
Position N 34°51' E 128°59'.

Length 368 m; draft 13.8 m.

Type: Ship (hazmat cat A). MMSI: 220379000.

Date/timePositionNaut miles runAvg speedWind from/ knotsBaromVisibWave heightAir tempDewpointWater temp
2018-Jul-22 04:17N 34°51' E 128°59'2 5.8
2018-Jul-22 04:00N 34°51' E 129°01'4 7.4
2018-Jul-22 03:29N 34°52' E 129°05'4 7.9
2018-Jul-22 03:00N 34°54' E 129°09'6 8.1
2018-Jul-22 02:18N 34°58' E 129°15'2 6.9
2018-Jul-22 01:59N 34°59' E 129°17'2 4.4
2018-Jul-22 01:29N 35°01' E 129°19'2 3.3
2018-Jul-22 01:01N 35°02' E 129°19'1 1.2
2018-Jul-22 00:31N 35°01' E 129°20'1 2.7
2018-Jul-22 00:00N 35°01' E 129°21'0 0.4
2018-Jul-21 23:25N 35°01' E 129°21'1 1.8
2018-Jul-21 23:00N 35°01' E 129°20'1 1.4
2018-Jul-21 22:31N 35°00' E 129°20'1 1.3
2018-Jul-21 21:59N 35°00' E 129°19'0 1.0
2018-Jul-21 21:30N 34°60' E 129°18'0 0.5
2018-Jul-21 21:00N 34°60' E 129°18'0 0.9
2018-Jul-21 20:31N 34°59' E 129°18'0 0.1
2018-Jul-21 19:19N 34°59' E 129°18'0 0.9
2018-Jul-21 18:50N 34°60' E 129°19'0 0.8
2018-Jul-21 18:31N 34°60' E 129°19'0 0.6
2018-Jul-21 18:00N 35°00' E 129°19'0 0.3
2018-Jul-21 17:30N 35°00' E 129°19'1 1.2
2018-Jul-21 17:01N 35°01' E 129°19'0 0.6
2018-Jul-21 16:30N 35°01' E 129°19'0 0.5
2018-Jul-21 16:00N 35°01' E 129°20'0 0.7
2018-Jul-21 15:18N 35°02' E 129°20'0 0.4
2018-Jul-21 15:00N 35°02' E 129°20'1 0.9
2018-Jul-21 14:28N 35°01' E 129°19'2 2.0
2018-Jul-21 13:31N 34°60' E 129°18'1 2.1
2018-Jul-21 12:48N 34°59' E 129°17'1 2.6
2018-Jul-21 12:29N 34°58' E 129°16'1 2.3
2018-Jul-21 11:59N 34°57' E 129°16'1 2.4
2018-Jul-21 11:30N 34°56' E 129°15'5 1.5
2018-Jul-21 08:28N 34°52' E 129°14'0 1.0
2018-Jul-21 08:00N 34°51' E 129°14'  
2018-Jul-18 06:22N 36°00' E 120°12'153 5.9
2018-Jul-17 04:21N 37°17' E 122°57'51 7.9
2018-Jul-16 21:53N 37°55' E 122°14'1414.5
2018-Jul-16 20:54N 38°01' E 121°58'3214.1
2018-Jul-16 18:39N 38°18' E 121°24'214.1
2018-Jul-16 18:30N 38°20' E 121°21'713.9
2018-Jul-16 18:00N 38°23' E 121°14'4513.4
2018-Jul-16 14:37N 38°36' E 120°18'213.9
2018-Jul-16 14:30N 38°36' E 120°16'62 1.3
2018-Jul-14 15:16N 38°21' E 121°33'516.8
2018-Jul-14 15:00N 38°19' E 121°38'41714.3
2018-Jul-13 09:47N 34°52' E 129°09'720.2
2018-Jul-13 09:26N 34°57' E 129°16'920.2
2018-Jul-13 09:00N 35°01' E 129°25'  

Dump ship's entire track history